BEL3CQ EDDM-EBBR
Flight info
| Callsign | BEL3CQ |
|---|---|
| Flight time | 0h 59m |
| Altitude | 32000 |
| Route | GIVMI1N/26R GIVMI Y101 ERMEL Q162 SPESA DCT BOMBI DCT BATTY |
| Aircraft | A320/M-SDE3FGHIRWY/LB1 |
Departure
| Time | 2026-05-07 17:54 |
|---|---|
| Airport | Munich Airport (EDDM) |
Arrival
| Time | 2026-05-07 18:53 |
|---|---|
| Airport | Brussels Airport (EBBR) |
| Time | Latitude | Longitude | Altitude | Speed | Heading |
|---|---|---|---|---|---|
| 2026-05-07 17:25 | 48.35730 | 11.79688 | 1476 ft | 0 kts | 83° |
| 2026-05-07 17:42 | 48.35729 | 11.79671 | 1485 ft | 4 kts | 83° |
| 2026-05-07 17:42 | 48.35726 | 11.79631 | 1481 ft | 4 kts | 83° |
| 2026-05-07 17:42 | 48.35723 | 11.79598 | 1481 ft | 4 kts | 79° |
| 2026-05-07 17:42 | 48.35714 | 11.79562 | 1471 ft | 4 kts | 43° |
| 2026-05-07 17:43 | 48.35693 | 11.79549 | 1475 ft | 3 kts | 354° |
| 2026-05-07 17:43 | 48.35673 | 11.79552 | 1471 ft | 0 kts | 353° |
| 2026-05-07 17:45 | 48.35674 | 11.79552 | 1471 ft | 1 kts | 353° |
| 2026-05-07 17:46 | 48.35715 | 11.79545 | 1471 ft | 12 kts | 355° |
| 2026-05-07 17:46 | 48.35829 | 11.79521 | 1485 ft | 19 kts | 355° |
| 2026-05-07 17:46 | 48.35935 | 11.79507 | 1485 ft | 1 kts | 354° |
| 2026-05-07 17:48 | 48.35943 | 11.79506 | 1485 ft | 5 kts | 354° |
| 2026-05-07 17:48 | 48.36006 | 11.79497 | 1478 ft | 13 kts | 353° |
| 2026-05-07 17:48 | 48.36125 | 11.79473 | 1476 ft | 19 kts | 353° |
| 2026-05-07 17:48 | 48.36214 | 11.79511 | 1485 ft | 15 kts | 71° |
| 2026-05-07 17:49 | 48.36229 | 11.79669 | 1485 ft | 16 kts | 83° |
| 2026-05-07 17:49 | 48.36242 | 11.79840 | 1481 ft | 17 kts | 83° |
| 2026-05-07 17:49 | 48.36256 | 11.80023 | 1485 ft | 18 kts | 83° |
| 2026-05-07 17:49 | 48.36272 | 11.80222 | 1485 ft | 20 kts | 84° |
| 2026-05-07 17:50 | 48.36287 | 11.80435 | 1485 ft | 21 kts | 84° |
| 2026-05-07 17:50 | 48.36305 | 11.80660 | 1485 ft | 22 kts | 83° |
| 2026-05-07 17:50 | 48.36323 | 11.80893 | 1479 ft | 22 kts | 83° |
| 2026-05-07 17:50 | 48.36341 | 11.81125 | 1476 ft | 23 kts | 83° |
| 2026-05-07 17:51 | 48.36360 | 11.81369 | 1483 ft | 24 kts | 83° |
| 2026-05-07 17:51 | 48.36380 | 11.81620 | 1472 ft | 25 kts | 83° |
| 2026-05-07 17:51 | 48.36397 | 11.81856 | 1483 ft | 13 kts | 84° |
| 2026-05-07 17:51 | 48.36408 | 11.81987 | 1485 ft | 12 kts | 47° |
| 2026-05-07 17:52 | 48.36491 | 11.81993 | 1483 ft | 13 kts | 357° |
| 2026-05-07 17:52 | 48.36583 | 11.81979 | 1479 ft | 14 kts | 353° |
| 2026-05-07 17:52 | 48.36671 | 11.81939 | 1480 ft | 12 kts | 297° |
| 2026-05-07 17:52 | 48.36667 | 11.81880 | 1475 ft | 6 kts | 265° |
| 2026-05-07 17:53 | 48.36644 | 11.81504 | 1479 ft | 73 kts | 263° |
| 2026-05-07 17:53 | 48.36560 | 11.80433 | 1482 ft | 133 kts | 263° |
| 2026-05-07 17:53 | 48.36434 | 11.78802 | 1497 ft | 178 kts | 263° |
| 2026-05-07 17:53 | 48.36280 | 11.76923 | 2045 ft | 181 kts | 264° |
| 2026-05-07 17:54 | 48.36137 | 11.75047 | 2822 ft | 179 kts | 264° |
| 2026-05-07 17:54 | 48.35995 | 11.73194 | 3521 ft | 180 kts | 266° |
| 2026-05-07 17:54 | 48.35853 | 11.71228 | 3854 ft | 198 kts | 265° |
| 2026-05-07 17:54 | 48.35708 | 11.69075 | 4238 ft | 213 kts | 271° |
| 2026-05-07 17:55 | 48.36072 | 11.66920 | 4691 ft | 226 kts | 299° |
| 2026-05-07 17:55 | 48.36962 | 11.64818 | 5045 ft | 249 kts | 302° |
| 2026-05-07 17:55 | 48.37918 | 11.62553 | 5679 ft | 260 kts | 302° |
| 2026-05-07 17:55 | 48.38892 | 11.60221 | 6533 ft | 264 kts | 301° |
| 2026-05-07 17:56 | 48.39862 | 11.57861 | 7435 ft | 265 kts | 300° |
| 2026-05-07 17:56 | 48.40816 | 11.55525 | 8352 ft | 264 kts | 300° |
| 2026-05-07 17:56 | 48.41783 | 11.53134 | 9176 ft | 269 kts | 298° |
| 2026-05-07 17:56 | 48.42833 | 11.50786 | 9991 ft | 275 kts | 314° |
| 2026-05-07 17:57 | 48.44370 | 11.49014 | 10698 ft | 283 kts | 324° |
| 2026-05-07 17:57 | 48.45587 | 11.48116 | 10897 ft | 302 kts | 336° |
| 2026-05-07 17:57 | 48.48365 | 11.46740 | 11350 ft | 326 kts | 339° |
| 2026-05-07 17:57 | 48.50556 | 11.45709 | 12020 ft | 332 kts | 339° |
| 2026-05-07 17:58 | 48.52029 | 11.45027 | 12503 ft | 335 kts | 339° |
| 2026-05-07 17:58 | 48.54278 | 11.43985 | 13230 ft | 339 kts | 339° |
| 2026-05-07 17:58 | 48.56552 | 11.42925 | 13948 ft | 343 kts | 339° |
| 2026-05-07 17:58 | 48.58816 | 11.41864 | 14583 ft | 346 kts | 339° |
| 2026-05-07 17:59 | 48.61136 | 11.40769 | 15251 ft | 348 kts | 339° |
| 2026-05-07 17:59 | 48.63466 | 11.39660 | 15922 ft | 350 kts | 339° |
| 2026-05-07 17:59 | 48.65769 | 11.38558 | 16568 ft | 353 kts | 339° |
| 2026-05-07 17:59 | 48.68123 | 11.37433 | 17220 ft | 355 kts | 339° |
| 2026-05-07 18:00 | 48.70411 | 11.36045 | 17821 ft | 355 kts | 329° |
| 2026-05-07 18:00 | 48.72517 | 11.34066 | 18423 ft | 356 kts | 323° |
| 2026-05-07 18:00 | 48.74555 | 11.31994 | 18965 ft | 358 kts | 323° |
| 2026-05-07 18:00 | 48.76641 | 11.29878 | 19543 ft | 360 kts | 323° |
| 2026-05-07 18:01 | 48.78734 | 11.27756 | 20104 ft | 363 kts | 323° |
| 2026-05-07 18:01 | 48.80820 | 11.25639 | 20643 ft | 365 kts | 323° |
| 2026-05-07 18:01 | 48.82946 | 11.23479 | 21195 ft | 368 kts | 324° |
| 2026-05-07 18:01 | 48.85212 | 11.21612 | 21737 ft | 374 kts | 334° |
| 2026-05-07 18:02 | 48.90209 | 11.19020 | 22836 ft | 381 kts | 339° |
| 2026-05-07 18:02 | 48.92711 | 11.17761 | 23352 ft | 384 kts | 339° |
| 2026-05-07 18:02 | 48.95266 | 11.16469 | 23826 ft | 386 kts | 339° |
| 2026-05-07 18:03 | 48.97831 | 11.15162 | 24252 ft | 389 kts | 339° |
| 2026-05-07 18:03 | 49.00379 | 11.13860 | 24662 ft | 392 kts | 339° |
| 2026-05-07 18:03 | 49.02981 | 11.12533 | 25034 ft | 395 kts | 339° |
| 2026-05-07 18:03 | 49.05606 | 11.11195 | 25434 ft | 398 kts | 339° |
| 2026-05-07 18:04 | 49.08237 | 11.09851 | 25819 ft | 400 kts | 339° |
| 2026-05-07 18:04 | 49.10883 | 11.08501 | 26207 ft | 402 kts | 339° |
| 2026-05-07 18:04 | 49.13548 | 11.07138 | 26559 ft | 405 kts | 338° |
| 2026-05-07 18:04 | 49.16084 | 11.05407 | 26900 ft | 404 kts | 328° |
| 2026-05-07 18:05 | 49.18407 | 11.02988 | 27271 ft | 404 kts | 318° |
| 2026-05-07 18:05 | 49.20416 | 10.99971 | 27621 ft | 404 kts | 308° |
| 2026-05-07 18:05 | 49.22059 | 10.96456 | 27969 ft | 405 kts | 300° |
| 2026-05-07 18:05 | 49.23552 | 10.92782 | 28316 ft | 407 kts | 301° |
| 2026-05-07 18:06 | 49.25036 | 10.89136 | 28636 ft | 410 kts | 301° |
| 2026-05-07 18:06 | 49.26549 | 10.85425 | 28982 ft | 412 kts | 301° |
| 2026-05-07 18:06 | 49.28077 | 10.81679 | 29312 ft | 414 kts | 301° |
| 2026-05-07 18:06 | 49.29611 | 10.77914 | 29636 ft | 415 kts | 301° |
| 2026-05-07 18:07 | 49.31126 | 10.74190 | 29951 ft | 417 kts | 301° |
| 2026-05-07 18:07 | 49.32665 | 10.70398 | 30215 ft | 420 kts | 301° |
| 2026-05-07 18:07 | 49.34220 | 10.66563 | 30403 ft | 423 kts | 301° |
| 2026-05-07 18:07 | 49.35764 | 10.62748 | 30625 ft | 426 kts | 301° |
| 2026-05-07 18:08 | 49.37328 | 10.58879 | 30858 ft | 428 kts | 301° |
| 2026-05-07 18:08 | 49.38903 | 10.54979 | 31091 ft | 429 kts | 301° |
| 2026-05-07 18:08 | 49.40483 | 10.51063 | 31306 ft | 431 kts | 301° |
| 2026-05-07 18:08 | 49.42064 | 10.47132 | 31577 ft | 431 kts | 301° |
| 2026-05-07 18:09 | 49.43637 | 10.43212 | 31912 ft | 431 kts | 301° |
| 2026-05-07 18:09 | 49.45191 | 10.39331 | 32039 ft | 429 kts | 300° |
| 2026-05-07 18:09 | 49.46728 | 10.35489 | 32064 ft | 414 kts | 300° |
| 2026-05-07 18:10 | 49.49728 | 10.27964 | 32328 ft | 416 kts | 300° |
| 2026-05-07 18:10 | 49.51241 | 10.24164 | 32669 ft | 416 kts | 300° |
| 2026-05-07 18:10 | 49.52754 | 10.20357 | 33028 ft | 416 kts | 301° |
| 2026-05-07 18:10 | 49.54271 | 10.16538 | 33352 ft | 416 kts | 301° |
| 2026-05-07 18:11 | 49.55768 | 10.12769 | 33693 ft | 416 kts | 300° |
| 2026-05-07 18:11 | 49.57285 | 10.08949 | 34000 ft | 417 kts | 301° |
| 2026-05-07 18:11 | 49.58803 | 10.05131 | 34058 ft | 416 kts | 300° |
| 2026-05-07 18:12 | 49.61799 | 9.97548 | 34058 ft | 416 kts | 300° |
| 2026-05-07 18:12 | 49.64807 | 9.89898 | 34060 ft | 415 kts | 300° |
| 2026-05-07 18:13 | 49.67788 | 9.82309 | 34056 ft | 415 kts | 300° |
| 2026-05-07 18:13 | 49.70782 | 9.74644 | 34059 ft | 415 kts | 300° |
| 2026-05-07 18:14 | 49.73750 | 9.67029 | 34061 ft | 415 kts | 300° |
| 2026-05-07 18:14 | 49.76731 | 9.59367 | 34062 ft | 415 kts | 300° |
| 2026-05-07 18:15 | 49.79692 | 9.51748 | 34055 ft | 415 kts | 300° |
| 2026-05-07 18:15 | 49.82659 | 9.44096 | 34065 ft | 415 kts | 300° |
| 2026-05-07 18:16 | 49.85630 | 9.36405 | 34061 ft | 415 kts | 300° |
| 2026-05-07 18:16 | 49.88529 | 9.28659 | 34057 ft | 415 kts | 299° |
| 2026-05-07 18:17 | 49.91391 | 9.20927 | 34056 ft | 415 kts | 300° |
| 2026-05-07 18:17 | 49.94302 | 9.13223 | 34057 ft | 415 kts | 300° |
| 2026-05-07 18:18 | 49.97219 | 9.05472 | 34058 ft | 415 kts | 300° |
| 2026-05-07 18:18 | 50.00097 | 8.97746 | 34062 ft | 414 kts | 300° |
| 2026-05-07 18:19 | 50.02979 | 8.89968 | 34063 ft | 414 kts | 299° |
| 2026-05-07 18:19 | 50.05856 | 8.82175 | 34062 ft | 414 kts | 299° |
| 2026-05-07 18:20 | 50.08705 | 8.74453 | 34062 ft | 414 kts | 299° |
| 2026-05-07 18:20 | 50.11578 | 8.66645 | 34059 ft | 414 kts | 299° |
| 2026-05-07 18:21 | 50.14434 | 8.58868 | 34055 ft | 414 kts | 299° |
| 2026-05-07 18:21 | 50.17295 | 8.51041 | 34056 ft | 415 kts | 299° |
| 2026-05-07 18:22 | 50.20135 | 8.43245 | 34064 ft | 415 kts | 299° |
| 2026-05-07 18:22 | 50.22992 | 8.35394 | 34065 ft | 415 kts | 299° |
| 2026-05-07 18:23 | 50.25818 | 8.27577 | 34066 ft | 415 kts | 299° |
| 2026-05-07 18:23 | 50.28656 | 8.19705 | 34076 ft | 414 kts | 299° |
| 2026-05-07 18:24 | 50.31491 | 8.11846 | 34076 ft | 414 kts | 299° |
| 2026-05-07 18:24 | 50.32890 | 8.07960 | 33942 ft | 412 kts | 299° |
| 2026-05-07 18:24 | 50.34282 | 8.04081 | 33654 ft | 405 kts | 299° |
| 2026-05-07 18:24 | 50.35655 | 8.00246 | 33382 ft | 401 kts | 299° |
| 2026-05-07 18:25 | 50.36998 | 7.96482 | 33113 ft | 399 kts | 299° |
| 2026-05-07 18:25 | 50.38348 | 7.92695 | 32845 ft | 397 kts | 299° |
| 2026-05-07 18:25 | 50.39694 | 7.88914 | 32540 ft | 394 kts | 299° |
| 2026-05-07 18:25 | 50.41024 | 7.85181 | 32083 ft | 390 kts | 298° |
| 2026-05-07 18:26 | 50.42344 | 7.81470 | 31630 ft | 386 kts | 298° |
| 2026-05-07 18:26 | 50.43630 | 7.77848 | 31175 ft | 383 kts | 298° |
| 2026-05-07 18:26 | 50.44925 | 7.74199 | 30729 ft | 380 kts | 298° |
| 2026-05-07 18:26 | 50.46207 | 7.70573 | 30280 ft | 378 kts | 298° |
| 2026-05-07 18:27 | 50.47482 | 7.66971 | 29808 ft | 375 kts | 298° |
| 2026-05-07 18:27 | 50.48727 | 7.63451 | 29397 ft | 370 kts | 298° |
| 2026-05-07 18:27 | 50.49971 | 7.59929 | 28977 ft | 366 kts | 298° |
| 2026-05-07 18:27 | 50.51201 | 7.56440 | 28579 ft | 362 kts | 298° |
| 2026-05-07 18:28 | 50.52414 | 7.52989 | 28180 ft | 358 kts | 298° |
| 2026-05-07 18:28 | 50.53595 | 7.49621 | 27796 ft | 353 kts | 298° |
| 2026-05-07 18:28 | 50.54769 | 7.46234 | 27407 ft | 349 kts | 295° |
| 2026-05-07 18:28 | 50.55658 | 7.42706 | 27009 ft | 344 kts | 284° |
| 2026-05-07 18:29 | 50.56124 | 7.39003 | 26684 ft | 350 kts | 275° |
| 2026-05-07 18:29 | 50.56363 | 7.35156 | 26336 ft | 355 kts | 275° |
| 2026-05-07 18:29 | 50.56606 | 7.31292 | 25991 ft | 355 kts | 275° |
| 2026-05-07 18:29 | 50.56851 | 7.27437 | 25649 ft | 354 kts | 275° |
| 2026-05-07 18:30 | 50.57112 | 7.23596 | 25316 ft | 352 kts | 278° |
| 2026-05-07 18:30 | 50.57633 | 7.19888 | 25071 ft | 351 kts | 282° |
| 2026-05-07 18:30 | 50.58210 | 7.16159 | 24830 ft | 350 kts | 282° |
| 2026-05-07 18:30 | 50.58786 | 7.12425 | 24590 ft | 349 kts | 282° |
| 2026-05-07 18:31 | 50.59359 | 7.08717 | 24348 ft | 348 kts | 282° |
| 2026-05-07 18:31 | 50.59930 | 7.05014 | 24105 ft | 347 kts | 282° |
| 2026-05-07 18:31 | 50.60496 | 7.01329 | 23880 ft | 345 kts | 282° |
| 2026-05-07 18:31 | 50.61053 | 6.97693 | 23647 ft | 344 kts | 282° |
| 2026-05-07 18:32 | 50.61614 | 6.94026 | 23372 ft | 344 kts | 282° |
| 2026-05-07 18:32 | 50.62173 | 6.90364 | 23093 ft | 342 kts | 282° |
| 2026-05-07 18:32 | 50.62730 | 6.86720 | 22827 ft | 341 kts | 282° |
| 2026-05-07 18:32 | 50.63277 | 6.83134 | 22558 ft | 340 kts | 282° |
| 2026-05-07 18:33 | 50.63828 | 6.79513 | 22287 ft | 338 kts | 282° |
| 2026-05-07 18:33 | 50.64375 | 6.75907 | 22019 ft | 337 kts | 282° |
| 2026-05-07 18:33 | 50.64919 | 6.72308 | 21752 ft | 335 kts | 282° |
| 2026-05-07 18:33 | 50.65449 | 6.68775 | 21496 ft | 334 kts | 282° |
| 2026-05-07 18:34 | 50.65980 | 6.65219 | 21236 ft | 333 kts | 282° |
| 2026-05-07 18:34 | 50.66512 | 6.61659 | 20981 ft | 332 kts | 282° |
| 2026-05-07 18:34 | 50.67041 | 6.58118 | 20719 ft | 330 kts | 282° |
| 2026-05-07 18:34 | 50.67567 | 6.54589 | 20448 ft | 329 kts | 282° |
| 2026-05-07 18:35 | 50.68086 | 6.51107 | 20202 ft | 328 kts | 282° |
| 2026-05-07 18:35 | 50.68607 | 6.47601 | 19952 ft | 327 kts | 282° |
| 2026-05-07 18:35 | 50.69126 | 6.44108 | 19703 ft | 326 kts | 282° |
| 2026-05-07 18:35 | 50.69638 | 6.40673 | 19451 ft | 324 kts | 282° |
| 2026-05-07 18:36 | 50.70150 | 6.37204 | 19221 ft | 323 kts | 282° |
| 2026-05-07 18:36 | 50.70659 | 6.33745 | 18980 ft | 322 kts | 282° |
| 2026-05-07 18:36 | 50.71164 | 6.30303 | 18735 ft | 321 kts | 282° |
| 2026-05-07 18:36 | 50.71665 | 6.26870 | 18503 ft | 320 kts | 282° |
| 2026-05-07 18:37 | 50.72159 | 6.23483 | 18254 ft | 319 kts | 282° |
| 2026-05-07 18:37 | 50.72658 | 6.20061 | 17981 ft | 318 kts | 282° |
| 2026-05-07 18:37 | 50.73154 | 6.16663 | 17710 ft | 317 kts | 282° |
| 2026-05-07 18:37 | 50.73643 | 6.13316 | 17445 ft | 316 kts | 282° |
| 2026-05-07 18:38 | 50.74134 | 6.09936 | 17180 ft | 314 kts | 282° |
| 2026-05-07 18:38 | 50.74621 | 6.06562 | 16918 ft | 313 kts | 282° |
| 2026-05-07 18:38 | 50.75104 | 6.03209 | 16657 ft | 312 kts | 282° |
| 2026-05-07 18:38 | 50.75578 | 5.99914 | 16417 ft | 309 kts | 282° |
| 2026-05-07 18:39 | 50.76052 | 5.96622 | 16114 ft | 305 kts | 282° |
| 2026-05-07 18:39 | 50.76523 | 5.93347 | 15762 ft | 304 kts | 282° |
| 2026-05-07 18:39 | 50.76989 | 5.90077 | 15406 ft | 303 kts | 282° |
| 2026-05-07 18:39 | 50.77450 | 5.86834 | 15054 ft | 302 kts | 282° |
| 2026-05-07 18:40 | 50.77912 | 5.83588 | 14699 ft | 302 kts | 282° |
| 2026-05-07 18:40 | 50.78366 | 5.80392 | 14349 ft | 301 kts | 282° |
| 2026-05-07 18:40 | 50.78826 | 5.77150 | 13993 ft | 300 kts | 281° |
| 2026-05-07 18:40 | 50.79283 | 5.73920 | 13605 ft | 300 kts | 281° |
| 2026-05-07 18:41 | 50.79732 | 5.70749 | 13243 ft | 298 kts | 282° |
| 2026-05-07 18:41 | 50.80183 | 5.67551 | 12889 ft | 296 kts | 282° |
| 2026-05-07 18:41 | 50.80631 | 5.64382 | 12519 ft | 295 kts | 282° |
| 2026-05-07 18:41 | 50.81077 | 5.61221 | 12175 ft | 293 kts | 282° |
| 2026-05-07 18:42 | 50.81513 | 5.58115 | 11809 ft | 292 kts | 282° |
| 2026-05-07 18:42 | 50.81953 | 5.54980 | 11444 ft | 291 kts | 283° |
| 2026-05-07 18:42 | 50.82618 | 5.51955 | 11088 ft | 291 kts | 292° |
| 2026-05-07 18:42 | 50.83427 | 5.49019 | 10743 ft | 290 kts | 293° |
| 2026-05-07 18:43 | 50.84246 | 5.46100 | 10378 ft | 289 kts | 293° |
| 2026-05-07 18:43 | 50.85048 | 5.43234 | 10022 ft | 288 kts | 293° |
| 2026-05-07 18:43 | 50.85859 | 5.40331 | 9594 ft | 287 kts | 293° |
| 2026-05-07 18:43 | 50.86669 | 5.37422 | 9164 ft | 287 kts | 293° |
| 2026-05-07 18:44 | 50.87459 | 5.34575 | 8770 ft | 284 kts | 293° |
| 2026-05-07 18:44 | 50.88249 | 5.31720 | 8418 ft | 281 kts | 293° |
| 2026-05-07 18:44 | 50.89031 | 5.28886 | 8055 ft | 279 kts | 293° |
| 2026-05-07 18:44 | 50.89805 | 5.26073 | 7682 ft | 277 kts | 293° |
| 2026-05-07 18:45 | 50.90572 | 5.23274 | 7344 ft | 275 kts | 293° |
| 2026-05-07 18:45 | 50.91322 | 5.20535 | 6998 ft | 273 kts | 293° |
| 2026-05-07 18:45 | 50.92075 | 5.17785 | 6626 ft | 270 kts | 293° |
| 2026-05-07 18:45 | 50.92821 | 5.15050 | 6244 ft | 268 kts | 293° |
| 2026-05-07 18:46 | 50.93305 | 5.13264 | 6096 ft | 262 kts | 293° |
| 2026-05-07 18:46 | 50.94000 | 5.10684 | 6080 ft | 246 kts | 293° |
| 2026-05-07 18:46 | 50.94883 | 5.07388 | 5682 ft | 242 kts | 293° |
| 2026-05-07 18:46 | 50.95284 | 5.05745 | 5482 ft | 240 kts | 284° |
| 2026-05-07 18:47 | 50.95519 | 5.03144 | 5172 ft | 238 kts | 274° |
| 2026-05-07 18:47 | 50.95623 | 5.00514 | 4865 ft | 238 kts | 273° |
| 2026-05-07 18:47 | 50.95708 | 4.97896 | 4553 ft | 237 kts | 273° |
| 2026-05-07 18:47 | 50.95816 | 4.94443 | 4136 ft | 235 kts | 273° |
| 2026-05-07 18:48 | 50.95870 | 4.92726 | 4041 ft | 234 kts | 273° |
| 2026-05-07 18:48 | 50.95950 | 4.90144 | 4014 ft | 235 kts | 273° |
| 2026-05-07 18:48 | 50.96031 | 4.87548 | 4015 ft | 235 kts | 273° |
| 2026-05-07 18:48 | 50.96111 | 4.84956 | 4015 ft | 235 kts | 273° |
| 2026-05-07 18:49 | 50.96191 | 4.82355 | 4013 ft | 235 kts | 273° |
| 2026-05-07 18:49 | 50.96189 | 4.79784 | 3901 ft | 238 kts | 259° |
| 2026-05-07 18:49 | 50.95664 | 4.77291 | 3522 ft | 238 kts | 248° |
| 2026-05-07 18:49 | 50.95060 | 4.74840 | 3190 ft | 237 kts | 249° |
| 2026-05-07 18:50 | 50.94497 | 4.72423 | 2864 ft | 235 kts | 250° |
| 2026-05-07 18:50 | 50.93947 | 4.70012 | 2552 ft | 227 kts | 250° |
| 2026-05-07 18:50 | 50.93424 | 4.67720 | 2242 ft | 215 kts | 250° |
| 2026-05-07 18:50 | 50.92931 | 4.65566 | 1983 ft | 199 kts | 250° |
| 2026-05-07 18:51 | 50.92479 | 4.63591 | 1704 ft | 186 kts | 250° |
| 2026-05-07 18:51 | 50.92054 | 4.61738 | 1465 ft | 169 kts | 250° |
| 2026-05-07 18:51 | 50.91671 | 4.60070 | 1228 ft | 154 kts | 250° |
| 2026-05-07 18:51 | 50.91313 | 4.58511 | 1009 ft | 147 kts | 250° |
| 2026-05-07 18:52 | 50.90969 | 4.57002 | 833 ft | 144 kts | 250° |
| 2026-05-07 18:52 | 50.90631 | 4.55530 | 637 ft | 143 kts | 250° |
| 2026-05-07 18:52 | 50.90290 | 4.54050 | 435 ft | 143 kts | 250° |
| 2026-05-07 18:52 | 50.89949 | 4.52580 | 254 ft | 142 kts | 250° |
| 2026-05-07 18:53 | 50.89631 | 4.51179 | 177 ft | 127 kts | 250° |
| 2026-05-07 18:53 | 50.89381 | 4.50098 | 177 ft | 82 kts | 250° |
| 2026-05-07 18:53 | 50.89254 | 4.49550 | 176 ft | 23 kts | 250° |
| 2026-05-07 18:53 | 50.89235 | 4.49325 | 175 ft | 18 kts | 288° |
| 2026-05-07 18:54 | 50.89312 | 4.49151 | 168 ft | 13 kts | 311° |
| 2026-05-07 18:54 | 50.89380 | 4.49114 | 165 ft | 7 kts | 12° |
| 2026-05-07 18:54 | 50.89432 | 4.49134 | 163 ft | 8 kts | 14° |
| 2026-05-07 18:54 | 50.89495 | 4.49161 | 160 ft | 10 kts | 15° |
| 2026-05-07 18:55 | 50.89568 | 4.49191 | 157 ft | 10 kts | 15° |
| 2026-05-07 18:55 | 50.89638 | 4.49258 | 153 ft | 16 kts | 30° |
| 2026-05-07 18:55 | 50.89769 | 4.49312 | 145 ft | 20 kts | 14° |
| 2026-05-07 18:55 | 50.89911 | 4.49368 | 136 ft | 22 kts | 14° |
| 2026-05-07 18:56 | 50.90073 | 4.49438 | 128 ft | 26 kts | 14° |
| 2026-05-07 18:56 | 50.90252 | 4.49509 | 127 ft | 27 kts | 14° |
| 2026-05-07 18:56 | 50.90381 | 4.49518 | 120 ft | 18 kts | 322° |
| 2026-05-07 18:56 | 50.90408 | 4.49337 | 120 ft | 18 kts | 246° |
| 2026-05-07 18:57 | 50.90355 | 4.49162 | 122 ft | 16 kts | 246° |
| 2026-05-07 18:57 | 50.90313 | 4.49013 | 122 ft | 14 kts | 244° |
| 2026-05-07 18:57 | 50.90275 | 4.48882 | 122 ft | 12 kts | 245° |
| 2026-05-07 18:57 | 50.90242 | 4.48770 | 122 ft | 11 kts | 245° |
| 2026-05-07 18:58 | 50.90228 | 4.48687 | 124 ft | 6 kts | 293° |
| 2026-05-07 18:58 | 50.90266 | 4.48650 | 118 ft | 7 kts | 334° |
| 2026-05-07 18:58 | 50.90289 | 4.48633 | 120 ft | 2 kts | 335° |
| 2026-05-07 18:58 | 50.90294 | 4.48630 | 117 ft | 0 kts | 335° |